createdAt,value
2022-07-25T00:04:01.760Z,1011.96
2022-07-25T00:05:01.779Z,1011.95
2022-07-25T00:07:05.697Z,1011.94
2022-07-25T00:08:05.682Z,1011.91
2022-07-25T00:10:09.697Z,1011.90
2022-07-25T00:11:09.683Z,1011.85
2022-07-25T00:13:13.727Z,1011.88
2022-07-25T00:14:13.718Z,1011.86
2022-07-25T00:16:17.822Z,1011.78
2022-07-25T00:17:17.735Z,1011.76
2022-07-25T00:19:10.698Z,1011.77
2022-07-25T00:20:10.693Z,1011.74
2022-07-25T00:22:03.631Z,1011.73
2022-07-25T00:23:03.622Z,1011.69
2022-07-25T00:24:56.575Z,1011.70
2022-07-25T00:25:56.570Z,1011.72
2022-07-25T00:27:49.678Z,1011.70
2022-07-25T00:28:49.677Z,1011.68
2022-07-25T00:30:42.788Z,1011.64
2022-07-25T00:31:42.857Z,1011.62
2022-07-25T00:33:35.911Z,1011.59
2022-07-25T00:34:35.903Z,1011.57
2022-07-25T00:36:29.024Z,1011.54
2022-07-25T00:37:29.011Z,1011.57
2022-07-25T00:39:21.926Z,1011.56
2022-07-25T00:40:21.919Z,1011.53
2022-07-25T00:41:21.923Z,1011.54
2022-07-25T00:42:21.918Z,1011.57
2022-07-25T00:43:21.915Z,1011.54
2022-07-25T00:44:21.913Z,1011.54
2022-07-25T00:45:21.921Z,1011.55
2022-07-25T00:46:21.972Z,1011.53
2022-07-25T00:47:21.907Z,1011.49
2022-07-25T00:48:21.906Z,1011.50
2022-07-25T00:49:21.906Z,1011.50
2022-07-25T00:50:21.910Z,1011.47
2022-07-25T00:51:21.902Z,1011.45
2022-07-25T00:52:21.900Z,1011.44
2022-07-25T00:53:21.898Z,1011.43
2022-07-25T00:54:21.905Z,1011.41
2022-07-25T00:55:21.896Z,1011.40
2022-07-25T00:56:21.894Z,1011.37
2022-07-25T00:57:21.907Z,1011.42
2022-07-25T00:58:21.892Z,1011.37
2022-07-25T00:59:21.889Z,1011.41
2022-07-25T01:00:21.888Z,1011.40
2022-07-25T01:01:21.924Z,1011.42
2022-07-25T01:02:21.924Z,1011.39
2022-07-25T01:03:21.881Z,1011.36
2022-07-25T01:04:21.887Z,1011.37
2022-07-25T01:05:21.881Z,1011.37
2022-07-25T01:06:21.883Z,1011.34
2022-07-25T01:07:21.875Z,1011.40
2022-07-25T01:08:21.876Z,1011.39
2022-07-25T01:09:21.882Z,1011.34
2022-07-25T01:10:21.871Z,1011.37
2022-07-25T01:11:21.868Z,1011.36
2022-07-25T01:12:21.874Z,1011.34
2022-07-25T01:13:21.859Z,1011.38
2022-07-25T01:14:21.865Z,1011.35
2022-07-25T01:15:21.861Z,1011.39
2022-07-25T01:16:21.909Z,1011.39
2022-07-25T01:17:21.860Z,1011.36
2022-07-25T01:18:21.859Z,1011.36
2022-07-25T01:19:21.853Z,1011.35
2022-07-25T01:20:21.862Z,1011.34
2022-07-25T01:21:21.854Z,1011.36
2022-07-25T01:22:21.856Z,1011.33
2022-07-25T01:23:21.852Z,1011.31
2022-07-25T01:24:21.855Z,1011.33
2022-07-25T01:25:21.846Z,1011.31
2022-07-25T01:26:21.842Z,1011.31
2022-07-25T01:27:21.843Z,1011.27
2022-07-25T01:28:21.840Z,1011.23
2022-07-25T01:29:21.841Z,1011.24
2022-07-25T01:30:21.838Z,1011.21
2022-07-25T01:31:21.903Z,1011.20
2022-07-25T01:32:21.834Z,1011.20
2022-07-25T01:33:21.834Z,1011.17
2022-07-25T01:34:21.832Z,1011.17
2022-07-25T01:35:21.828Z,1011.16
2022-07-25T01:36:21.838Z,1011.18
2022-07-25T01:37:21.821Z,1011.15
2022-07-25T01:38:21.825Z,1011.17
2022-07-25T01:39:21.821Z,1011.15
2022-07-25T01:40:21.818Z,1011.16
2022-07-25T01:41:22.472Z,1011.14
2022-07-25T01:42:21.818Z,1011.11
2022-07-25T01:43:21.924Z,1011.12
2022-07-25T01:44:21.827Z,1011.11
2022-07-25T01:45:21.814Z,1011.11
2022-07-25T01:46:21.927Z,1011.10
2022-07-25T01:47:21.811Z,1011.05
2022-07-25T01:48:21.803Z,1011.05
2022-07-25T01:49:21.805Z,1011.03
2022-07-25T01:50:21.803Z,1011.06
2022-07-25T01:51:21.803Z,1011.03
2022-07-25T01:52:21.800Z,1011.03
2022-07-25T01:53:21.802Z,1011.03
2022-07-25T01:54:21.797Z,1011.04
2022-07-25T01:55:21.799Z,1011.04
2022-07-25T01:56:22.462Z,1011.04
2022-07-25T01:57:21.790Z,1011.01
2022-07-25T01:58:21.791Z,1010.98
2022-07-25T01:59:21.793Z,1010.96
2022-07-25T02:00:21.782Z,1010.96
2022-07-25T02:01:22.188Z,1010.93
2022-07-25T02:02:21.784Z,1010.92
2022-07-25T02:03:21.804Z,1010.90
2022-07-25T02:04:21.808Z,1010.90
2022-07-25T02:05:21.785Z,1010.90
2022-07-25T02:08:32.610Z,1010.88
2022-07-25T02:08:53.424Z,1010.84
2022-07-25T02:10:57.447Z,1010.84
2022-07-25T02:11:57.425Z,1010.81
2022-07-25T02:13:50.354Z,1010.80
2022-07-25T02:14:50.346Z,1010.80
2022-07-25T02:17:05.531Z,1010.81
2022-07-25T02:18:05.418Z,1010.78
2022-07-25T02:20:09.450Z,1010.79
2022-07-25T02:21:14.124Z,1010.78
2022-07-25T02:23:02.558Z,1010.78
2022-07-25T02:24:02.938Z,1010.74
2022-07-25T02:26:06.560Z,1010.73
2022-07-25T02:27:06.539Z,1010.71
2022-07-25T02:28:59.456Z,1010.68
2022-07-25T02:29:59.449Z,1010.66
2022-07-25T02:32:03.475Z,1010.68
2022-07-25T02:33:03.462Z,1010.65
2022-07-25T02:34:56.394Z,1010.62
2022-07-25T02:35:56.389Z,1010.61
2022-07-25T02:37:49.521Z,1010.56
2022-07-25T02:38:49.511Z,1010.53
2022-07-25T02:40:42.622Z,1010.49
2022-07-25T02:41:42.610Z,1010.54
2022-07-25T02:43:35.572Z,1010.52
2022-07-25T02:44:35.564Z,1010.53
2022-07-25T02:45:35.598Z,1010.50
2022-07-25T02:46:35.613Z,1010.53
2022-07-25T02:47:35.559Z,1010.46
2022-07-25T02:48:35.618Z,1010.49
2022-07-25T02:49:35.557Z,1010.46
2022-07-25T02:50:35.557Z,1010.43
2022-07-25T02:51:35.549Z,1010.44
2022-07-25T02:52:35.551Z,1010.44
2022-07-25T02:53:55.931Z,1010.44
2022-07-25T02:54:35.548Z,1010.41
2022-07-25T02:55:35.544Z,1010.41
2022-07-25T02:56:35.544Z,1010.41
2022-07-25T02:57:35.539Z,1010.39
2022-07-25T02:58:35.537Z,1010.41
2022-07-25T02:59:35.537Z,1010.39
2022-07-25T03:00:35.536Z,1010.35
2022-07-25T03:01:35.593Z,1010.37
2022-07-25T03:02:35.529Z,1010.39
2022-07-25T03:03:35.555Z,1010.38
2022-07-25T03:04:35.580Z,1010.38
2022-07-25T03:05:35.524Z,1010.36
2022-07-25T03:06:35.526Z,1010.36
2022-07-25T03:07:35.517Z,1010.35
2022-07-25T03:08:35.520Z,1010.35
2022-07-25T03:09:35.521Z,1010.35
2022-07-25T03:10:35.516Z,1010.36
2022-07-25T03:11:35.509Z,1010.35
2022-07-25T03:12:35.512Z,1010.33
2022-07-25T03:13:35.504Z,1010.30
2022-07-25T03:14:35.504Z,1010.27
2022-07-25T03:15:35.503Z,1010.27
2022-07-25T03:16:35.557Z,1010.23
2022-07-25T03:17:35.500Z,1010.25
2022-07-25T03:18:35.509Z,1010.25
2022-07-25T03:19:35.495Z,1010.22
2022-07-25T03:20:35.495Z,1010.19
2022-07-25T03:21:35.493Z,1010.17
2022-07-25T03:22:35.493Z,1010.21
2022-07-25T03:23:35.487Z,1010.19
2022-07-25T03:24:35.514Z,1010.15
2022-07-25T03:25:35.481Z,1010.16
2022-07-25T03:26:35.478Z,1010.13
2022-07-25T03:27:35.477Z,1010.16
2022-07-25T03:28:35.473Z,1010.16
2022-07-25T03:29:35.483Z,1010.14
2022-07-25T03:30:35.498Z,1010.15
2022-07-25T03:31:35.516Z,1010.17
2022-07-25T03:32:35.475Z,1010.16
2022-07-25T03:33:35.465Z,1010.12
2022-07-25T03:34:35.463Z,1010.14
2022-07-25T03:35:35.467Z,1010.15
2022-07-25T03:36:35.458Z,1010.09
2022-07-25T03:37:35.456Z,1010.08
2022-07-25T03:38:35.467Z,1010.11
2022-07-25T03:39:35.451Z,1010.11
2022-07-25T03:40:35.456Z,1010.08
2022-07-25T03:41:35.447Z,1010.10
2022-07-25T03:42:35.799Z,1010.07
2022-07-25T03:43:35.449Z,1010.09
2022-07-25T03:44:35.442Z,1010.07
2022-07-25T03:45:35.489Z,1010.07
2022-07-25T03:46:35.437Z,1010.05
2022-07-25T03:47:35.431Z,1010.05
2022-07-25T03:48:35.454Z,1010.03
2022-07-25T03:49:35.431Z,1010.05
2022-07-25T03:50:35.436Z,1010.05
2022-07-25T03:51:35.426Z,1010.07
2022-07-25T03:52:35.431Z,1010.05
2022-07-25T03:53:35.425Z,1010.04
2022-07-25T03:54:35.422Z,1010.05
2022-07-25T03:55:35.424Z,1010.06
2022-07-25T03:56:35.418Z,1010.05
2022-07-25T03:57:35.414Z,1010.07
2022-07-25T03:58:35.422Z,1010.07
2022-07-25T03:59:35.417Z,1010.04
2022-07-25T04:00:35.407Z,1010.03
2022-07-25T04:01:35.479Z,1010.04
2022-07-25T04:02:35.418Z,1010.04
2022-07-25T04:03:35.407Z,1010.07
2022-07-25T04:04:35.398Z,1010.02
2022-07-25T04:05:35.401Z,1010.02
2022-07-25T04:06:35.404Z,1009.99
2022-07-25T04:07:35.394Z,1009.98
2022-07-25T04:08:35.393Z,1009.95
2022-07-25T04:09:35.395Z,1010.00
2022-07-25T04:10:35.386Z,1010.01
2022-07-25T04:11:35.385Z,1010.00
2022-07-25T04:12:35.386Z,1009.99
2022-07-25T04:13:35.386Z,1010.00
2022-07-25T04:14:35.391Z,1009.97
2022-07-25T04:15:35.377Z,1009.90
2022-07-25T04:16:35.401Z,1009.87
2022-07-25T04:17:35.378Z,1009.85
2022-07-25T04:18:35.374Z,1009.87
2022-07-25T04:19:35.371Z,1009.88
2022-07-25T04:20:35.371Z,1009.90
2022-07-25T04:21:35.368Z,1009.88
2022-07-25T04:22:35.367Z,1009.84
2022-07-25T04:23:35.362Z,1009.84
2022-07-25T04:24:35.363Z,1009.87
2022-07-25T04:25:35.359Z,1009.84
2022-07-25T04:26:35.365Z,1009.90
2022-07-25T04:27:35.358Z,1009.89
2022-07-25T04:28:35.356Z,1009.90
2022-07-25T04:29:35.361Z,1009.89
2022-07-25T04:30:35.362Z,1009.89
2022-07-25T04:31:35.400Z,1009.91
2022-07-25T04:32:35.356Z,1009.91
2022-07-25T04:33:35.345Z,1009.89
2022-07-25T04:34:35.346Z,1009.88
2022-07-25T04:35:35.347Z,1009.86
2022-07-25T04:36:35.346Z,1009.81
2022-07-25T04:37:35.346Z,1009.75
2022-07-25T04:38:35.348Z,1009.77
2022-07-25T04:39:35.340Z,1009.74
2022-07-25T04:40:35.342Z,1009.68
2022-07-25T04:41:35.355Z,1009.68
2022-07-25T04:42:35.343Z,1009.62
2022-07-25T04:43:35.341Z,1009.59
2022-07-25T04:44:35.339Z,1009.57
2022-07-25T04:45:35.374Z,1009.59
2022-07-25T04:46:35.345Z,1009.52
2022-07-25T04:47:35.332Z,1009.51
2022-07-25T04:48:35.450Z,1009.50
2022-07-25T04:49:35.337Z,1009.48
2022-07-25T04:50:35.339Z,1009.42
2022-07-25T04:51:35.338Z,1009.38
2022-07-25T04:52:35.346Z,1009.39
2022-07-25T04:53:35.336Z,1009.36
2022-07-25T04:54:35.337Z,1009.36
2022-07-25T04:55:35.342Z,1009.35
2022-07-25T04:56:35.347Z,1009.36
2022-07-25T04:57:35.336Z,1009.36
2022-07-25T04:58:35.336Z,1009.34
2022-07-25T04:59:35.340Z,1009.31
2022-07-25T05:00:35.389Z,1009.28
2022-07-25T05:01:35.500Z,1009.28
2022-07-25T05:02:35.396Z,1009.31
2022-07-25T05:03:35.338Z,1009.29
2022-07-25T05:04:35.339Z,1009.32
2022-07-25T05:05:35.342Z,1009.27
2022-07-25T05:06:35.343Z,1009.26
2022-07-25T05:07:35.346Z,1009.25
2022-07-25T05:08:35.352Z,1009.27
2022-07-25T05:09:35.344Z,1009.28
2022-07-25T05:10:35.347Z,1009.26
2022-07-25T05:11:35.347Z,1009.25
2022-07-25T05:12:35.358Z,1009.25
2022-07-25T05:13:35.350Z,1009.27
2022-07-25T05:14:35.353Z,1009.25
2022-07-25T05:15:35.350Z,1009.24
2022-07-25T05:16:35.395Z,1009.26
2022-07-25T05:17:35.356Z,1009.19
2022-07-25T05:18:35.366Z,1009.20
2022-07-25T05:19:35.356Z,1009.21
2022-07-25T05:20:35.358Z,1009.24
2022-07-25T05:21:35.363Z,1009.21
2022-07-25T05:22:35.365Z,1009.18
2022-07-25T05:23:35.367Z,1009.19
2022-07-25T05:24:35.371Z,1009.22
2022-07-25T05:25:35.372Z,1009.22
2022-07-25T05:26:35.382Z,1009.28
2022-07-25T05:27:35.382Z,1009.20
2022-07-25T05:28:35.375Z,1009.20
2022-07-25T05:29:35.379Z,1009.19
2022-07-25T05:30:39.441Z,1009.17
2022-07-25T05:31:35.441Z,1009.16
2022-07-25T05:32:35.393Z,1009.19
2022-07-25T05:33:35.388Z,1009.17
2022-07-25T05:34:35.390Z,1009.18
2022-07-25T05:35:35.393Z,1009.18
2022-07-25T05:36:35.398Z,1009.13
2022-07-25T05:37:35.400Z,1009.12
2022-07-25T05:38:35.405Z,1009.11
2022-07-25T05:39:35.397Z,1009.15
2022-07-25T05:40:35.405Z,1009.13
2022-07-25T05:41:35.402Z,1009.14
2022-07-25T05:42:35.408Z,1009.16
2022-07-25T05:43:35.413Z,1009.14
2022-07-25T05:44:35.422Z,1009.08
2022-07-25T05:45:35.417Z,1009.08
2022-07-25T05:46:35.549Z,1009.13
2022-07-25T05:47:35.423Z,1009.09
2022-07-25T05:48:35.477Z,1009.09
2022-07-25T05:49:35.433Z,1009.04
2022-07-25T05:50:35.434Z,1009.01
2022-07-25T05:51:35.436Z,1009.01
2022-07-25T05:52:35.438Z,1008.99
2022-07-25T05:53:35.445Z,1008.97
2022-07-25T05:54:35.443Z,1008.98
2022-07-25T05:55:35.459Z,1008.96
2022-07-25T05:56:35.455Z,1008.97
2022-07-25T05:57:35.463Z,1008.93
2022-07-25T05:58:35.457Z,1008.96
2022-07-25T05:59:35.460Z,1008.92
2022-07-25T06:00:35.464Z,1008.97
2022-07-25T06:01:35.516Z,1008.91
2022-07-25T06:02:35.682Z,1008.95
2022-07-25T06:03:35.473Z,1008.91
2022-07-25T06:04:35.478Z,1008.90
2022-07-25T06:05:35.482Z,1008.88
2022-07-25T06:06:35.484Z,1008.90
2022-07-25T06:07:35.486Z,1008.87
2022-07-25T06:08:35.491Z,1008.89
2022-07-25T06:09:35.495Z,1008.84
2022-07-25T06:10:35.501Z,1008.83
2022-07-25T06:11:35.501Z,1008.83
2022-07-25T06:12:36.694Z,1008.81
2022-07-25T06:13:35.511Z,1008.82
2022-07-25T06:14:35.515Z,1008.84
2022-07-25T06:15:35.518Z,1008.81
2022-07-25T06:16:35.623Z,1008.78
2022-07-25T06:17:35.539Z,1008.76
2022-07-25T06:18:35.531Z,1008.76
2022-07-25T06:19:35.536Z,1008.74
2022-07-25T06:20:35.544Z,1008.75
2022-07-25T06:21:35.548Z,1008.74
2022-07-25T06:22:35.554Z,1008.70
2022-07-25T06:23:35.556Z,1008.70
2022-07-25T06:24:35.565Z,1008.67
2022-07-25T06:25:35.563Z,1008.65
2022-07-25T06:26:35.569Z,1008.62
2022-07-25T06:27:35.570Z,1008.63
2022-07-25T06:28:35.578Z,1008.65
2022-07-25T06:29:35.610Z,1008.64
2022-07-25T06:30:35.594Z,1008.64
2022-07-25T06:31:35.670Z,1008.62
2022-07-25T06:32:35.606Z,1008.60
2022-07-25T06:33:35.605Z,1008.62
2022-07-25T06:34:35.609Z,1008.58
2022-07-25T06:35:35.614Z,1008.59
2022-07-25T06:36:35.640Z,1008.56
2022-07-25T06:37:35.622Z,1008.53
2022-07-25T06:38:35.629Z,1008.53
2022-07-25T06:39:35.639Z,1008.50
2022-07-25T06:40:35.641Z,1008.54
2022-07-25T06:41:35.646Z,1008.52
2022-07-25T06:42:35.650Z,1008.52
2022-07-25T06:43:35.658Z,1008.53
2022-07-25T06:44:35.664Z,1008.50
2022-07-25T06:45:35.669Z,1008.48
2022-07-25T06:46:35.698Z,1008.47
2022-07-25T06:47:36.232Z,1008.47
2022-07-25T06:48:35.737Z,1008.44
2022-07-25T06:49:35.713Z,1008.47
2022-07-25T06:50:35.716Z,1008.47
2022-07-25T06:51:35.708Z,1008.46
2022-07-25T06:52:35.718Z,1008.49
2022-07-25T06:53:35.728Z,1008.46
2022-07-25T06:54:35.748Z,1008.45
2022-07-25T06:55:35.736Z,1008.40
2022-07-25T06:56:35.742Z,1008.41
2022-07-25T06:57:35.750Z,1008.41
2022-07-25T06:58:35.752Z,1008.40
2022-07-25T06:59:35.760Z,1008.36
2022-07-25T07:00:35.814Z,1008.32
2022-07-25T07:01:35.779Z,1008.33
2022-07-25T07:02:35.784Z,1008.31
2022-07-25T07:03:35.827Z,1008.29
2022-07-25T07:04:35.802Z,1008.27
2022-07-25T07:05:35.802Z,1008.24
2022-07-25T07:06:35.809Z,1008.22
2022-07-25T07:07:35.820Z,1008.14
2022-07-25T07:08:35.827Z,1008.17
2022-07-25T07:09:35.830Z,1008.17
2022-07-25T07:10:35.839Z,1008.11
2022-07-25T07:11:35.847Z,1008.10
2022-07-25T07:12:35.849Z,1008.09
2022-07-25T07:13:35.920Z,1008.09
2022-07-25T07:14:35.868Z,1008.05
2022-07-25T07:15:35.878Z,1008.04
2022-07-25T07:16:35.928Z,1008.05
2022-07-25T07:17:35.895Z,1008.01
2022-07-25T07:18:35.907Z,1007.97
2022-07-25T07:19:35.904Z,1007.96
2022-07-25T07:20:35.911Z,1007.96
2022-07-25T07:21:35.919Z,1007.89
2022-07-25T07:22:35.925Z,1007.93
2022-07-25T07:23:35.932Z,1007.89
2022-07-25T07:24:38.839Z,1007.92
2022-07-25T07:25:35.968Z,1007.87
2022-07-25T07:26:35.955Z,1007.84
2022-07-25T07:27:35.965Z,1007.79
2022-07-25T07:28:35.973Z,1007.88
2022-07-25T07:29:35.978Z,1007.88
2022-07-25T07:31:05.570Z,1007.86
2022-07-25T07:31:36.073Z,1007.85
2022-07-25T07:32:36.001Z,1007.80
2022-07-25T07:33:36.008Z,1007.83
2022-07-25T07:34:36.037Z,1007.84
2022-07-25T07:35:36.107Z,1007.80
2022-07-25T07:36:36.032Z,1007.83
2022-07-25T07:37:40.146Z,1007.78
2022-07-25T07:38:36.058Z,1007.79
2022-07-25T07:39:36.060Z,1007.77
2022-07-25T07:40:36.066Z,1007.77
2022-07-25T07:41:36.076Z,1007.80
2022-07-25T07:42:36.084Z,1007.70
2022-07-25T07:43:36.089Z,1007.77
2022-07-25T07:44:36.100Z,1007.74
2022-07-25T07:45:36.105Z,1007.75
2022-07-25T07:46:36.192Z,1007.73
2022-07-25T07:47:36.131Z,1007.73
2022-07-25T07:48:36.181Z,1007.69
2022-07-25T07:49:36.873Z,1007.69
2022-07-25T07:50:36.157Z,1007.68
2022-07-25T07:51:36.158Z,1007.71
2022-07-25T07:52:36.167Z,1007.68
2022-07-25T07:53:36.177Z,1007.70
2022-07-25T07:54:36.178Z,1007.69
2022-07-25T07:55:36.187Z,1007.71
2022-07-25T07:56:36.200Z,1007.67
2022-07-25T07:57:36.207Z,1007.73
2022-07-25T07:58:36.215Z,1007.66
2022-07-25T07:59:36.221Z,1007.70
2022-07-25T08:00:36.231Z,1007.68
2022-07-25T08:01:36.259Z,1007.68
2022-07-25T08:02:36.308Z,1007.66
2022-07-25T08:03:36.252Z,1007.63
2022-07-25T08:04:36.267Z,1007.64
2022-07-25T08:05:36.279Z,1007.64
2022-07-25T08:06:36.299Z,1007.62
2022-07-25T08:07:36.291Z,1007.64
2022-07-25T08:08:36.311Z,1007.59
2022-07-25T08:09:36.312Z,1007.62
2022-07-25T08:10:36.316Z,1007.61
2022-07-25T08:11:36.327Z,1007.61
2022-07-25T08:12:36.332Z,1007.61
2022-07-25T08:13:36.338Z,1007.65
2022-07-25T08:14:36.352Z,1007.59
2022-07-25T08:15:36.388Z,1007.57
2022-07-25T08:16:36.444Z,1007.53
2022-07-25T08:17:36.376Z,1007.47
2022-07-25T08:18:36.386Z,1007.45
2022-07-25T08:19:36.393Z,1007.42
2022-07-25T08:20:38.347Z,1007.41
2022-07-25T08:21:36.411Z,1007.38
2022-07-25T08:22:36.418Z,1007.38
2022-07-25T08:23:36.428Z,1007.34
2022-07-25T08:24:36.437Z,1007.35
2022-07-25T08:25:36.445Z,1007.36
2022-07-25T08:26:36.452Z,1007.32
2022-07-25T08:27:36.460Z,1007.29
2022-07-25T08:28:36.466Z,1007.31
2022-07-25T08:29:36.473Z,1007.27
2022-07-25T08:30:36.495Z,1007.29
2022-07-25T08:31:36.606Z,1007.26
2022-07-25T08:32:36.495Z,1007.26
2022-07-25T08:33:36.507Z,1007.23
2022-07-25T08:34:36.517Z,1007.21
2022-07-25T08:35:36.517Z,1007.26
2022-07-25T08:36:36.523Z,1007.26
2022-07-25T08:37:36.532Z,1007.24
2022-07-25T08:38:36.537Z,1007.26
2022-07-25T08:39:36.544Z,1007.26
2022-07-25T08:40:36.549Z,1007.26
2022-07-25T08:41:36.554Z,1007.30
2022-07-25T08:42:36.560Z,1007.26
2022-07-25T08:43:36.566Z,1007.27
2022-07-25T08:44:36.577Z,1007.26
2022-07-25T08:45:36.577Z,1007.28
2022-07-25T08:46:36.648Z,1007.26
2022-07-25T08:47:36.588Z,1007.29
2022-07-25T08:48:36.642Z,1007.27
2022-07-25T08:49:36.601Z,1007.33
2022-07-25T08:50:36.607Z,1007.38
2022-07-25T08:51:36.609Z,1007.39
2022-07-25T08:52:36.614Z,1007.42
2022-07-25T08:53:36.667Z,1007.43
2022-07-25T08:54:36.626Z,1007.43
2022-07-25T08:55:36.632Z,1007.41
2022-07-25T08:56:36.637Z,1007.40
2022-07-25T08:57:36.638Z,1007.42
2022-07-25T08:58:36.652Z,1007.34
2022-07-25T08:59:36.654Z,1007.39
2022-07-25T09:00:36.658Z,1007.38
2022-07-25T09:01:36.737Z,1007.25
2022-07-25T09:02:36.715Z,1007.14
2022-07-25T09:03:36.697Z,1007.07
2022-07-25T09:04:36.679Z,1006.99
2022-07-25T09:05:37.017Z,1006.92
2022-07-25T09:06:36.699Z,1006.94
2022-07-25T09:07:36.696Z,1006.93
2022-07-25T09:08:36.703Z,1006.90
2022-07-25T09:09:36.711Z,1006.95
2022-07-25T09:10:36.714Z,1006.88
2022-07-25T09:11:36.720Z,1006.87
2022-07-25T09:12:36.726Z,1006.86
2022-07-25T09:13:36.735Z,1006.87
2022-07-25T09:14:36.736Z,1006.89
2022-07-25T09:15:36.811Z,1006.82
2022-07-25T09:16:36.749Z,1006.80
2022-07-25T09:17:36.755Z,1006.80
2022-07-25T09:18:36.759Z,1006.80
2022-07-25T09:19:36.759Z,1006.82
2022-07-25T09:20:36.767Z,1006.79
2022-07-25T09:21:36.769Z,1006.80
2022-07-25T09:22:36.777Z,1006.80
2022-07-25T09:23:36.778Z,1006.76
2022-07-25T09:24:36.882Z,1006.72
2022-07-25T09:25:36.793Z,1006.72
2022-07-25T09:26:36.795Z,1006.71
2022-07-25T09:27:36.795Z,1006.70
2022-07-25T09:28:36.803Z,1006.62
2022-07-25T09:29:36.806Z,1006.61
2022-07-25T09:30:36.814Z,1006.64
2022-07-25T09:31:36.888Z,1006.61
2022-07-25T09:32:36.818Z,1006.59
2022-07-25T09:33:36.825Z,1006.55
2022-07-25T09:34:36.830Z,1006.49
2022-07-25T09:35:36.831Z,1006.53
2022-07-25T09:36:36.906Z,1006.44
2022-07-25T09:37:36.841Z,1006.47
2022-07-25T09:38:36.865Z,1006.44
2022-07-25T09:39:38.739Z,1006.43
2022-07-25T09:40:36.856Z,1006.43
2022-07-25T09:41:36.860Z,1006.44
2022-07-25T09:42:36.865Z,1006.39
2022-07-25T09:43:36.867Z,1006.35
2022-07-25T09:44:36.878Z,1006.33
2022-07-25T09:45:36.877Z,1006.34
2022-07-25T09:46:36.924Z,1006.36
2022-07-25T09:47:36.891Z,1006.31
2022-07-25T09:48:36.909Z,1006.27
2022-07-25T09:49:36.890Z,1006.27
2022-07-25T09:50:36.897Z,1006.29
2022-07-25T09:51:36.901Z,1006.30
2022-07-25T09:52:36.917Z,1006.30
2022-07-25T09:53:36.908Z,1006.28
2022-07-25T09:54:36.911Z,1006.21
2022-07-25T09:55:36.922Z,1006.19
2022-07-25T09:56:36.926Z,1006.21
2022-07-25T09:57:36.934Z,1006.19
2022-07-25T09:58:36.930Z,1006.21
2022-07-25T09:59:36.932Z,1006.14
2022-07-25T10:00:36.935Z,1006.17
2022-07-25T10:01:37.027Z,1006.14
2022-07-25T10:02:36.982Z,1006.15
2022-07-25T10:03:36.947Z,1006.10
2022-07-25T10:04:36.953Z,1006.13
2022-07-25T10:05:36.955Z,1006.09
2022-07-25T10:06:36.965Z,1006.06
2022-07-25T10:07:36.960Z,1006.06
2022-07-25T10:08:36.966Z,1006.03
2022-07-25T10:09:36.966Z,1005.95
2022-07-25T10:10:36.973Z,1005.95
2022-07-25T10:11:36.976Z,1005.91
2022-07-25T10:12:36.984Z,1005.94
2022-07-25T10:13:36.987Z,1005.91
2022-07-25T10:14:36.991Z,1005.81
2022-07-25T10:15:36.997Z,1005.87
2022-07-25T10:16:37.068Z,1005.87
2022-07-25T10:17:36.999Z,1005.85
2022-07-25T10:18:37.006Z,1005.84
2022-07-25T10:19:37.009Z,1005.80
2022-07-25T10:20:37.013Z,1005.84
2022-07-25T10:21:37.019Z,1005.79
2022-07-25T10:22:55.234Z,1005.77
2022-07-25T10:23:37.030Z,1005.77
2022-07-25T10:24:37.027Z,1005.67
2022-07-25T10:25:37.032Z,1005.63
2022-07-25T10:26:37.066Z,1005.64
2022-07-25T10:27:37.042Z,1005.68
2022-07-25T10:28:37.045Z,1005.67
2022-07-25T10:29:37.049Z,1005.68
2022-07-25T10:30:37.107Z,1005.70
2022-07-25T10:31:37.054Z,1005.64
2022-07-25T10:32:37.059Z,1005.63
2022-07-25T10:33:37.067Z,1005.63
2022-07-25T10:34:37.068Z,1005.58
2022-07-25T10:35:37.075Z,1005.59
2022-07-25T10:36:37.076Z,1005.55
2022-07-25T10:37:37.080Z,1005.55
2022-07-25T10:38:37.083Z,1005.59
2022-07-25T10:39:37.098Z,1005.54
2022-07-25T10:40:37.095Z,1005.54
2022-07-25T10:41:37.094Z,1005.51
2022-07-25T10:42:37.097Z,1005.45
2022-07-25T10:43:37.101Z,1005.42
2022-07-25T10:44:37.107Z,1005.53
2022-07-25T10:45:38.482Z,1005.50
2022-07-25T10:46:37.192Z,1005.46
2022-07-25T10:47:37.128Z,1005.44
2022-07-25T10:48:37.179Z,1005.42
2022-07-25T10:49:37.512Z,1005.42
2022-07-25T10:50:55.016Z,1005.31
2022-07-25T10:51:41.600Z,1005.33
2022-07-25T10:52:37.136Z,1005.30
2022-07-25T10:53:37.145Z,1005.25
2022-07-25T10:54:37.151Z,1005.30
2022-07-25T10:55:37.164Z,1005.25
2022-07-25T10:56:37.157Z,1005.22
2022-07-25T10:57:49.588Z,1005.21
2022-07-25T10:58:37.166Z,1005.23
2022-07-25T10:59:37.164Z,1005.23
2022-07-25T11:00:37.174Z,1005.14
2022-07-25T11:01:37.213Z,1005.17
2022-07-25T11:02:37.227Z,1005.12
2022-07-25T11:03:37.199Z,1005.14
2022-07-25T11:04:37.198Z,1005.07
2022-07-25T11:05:37.194Z,1005.05
2022-07-25T11:06:37.200Z,1005.12
2022-07-25T11:07:37.214Z,1005.06
2022-07-25T11:08:37.206Z,1005.06
2022-07-25T11:09:37.215Z,1005.05
2022-07-25T11:10:37.217Z,1005.07
2022-07-25T11:11:37.220Z,1005.02
2022-07-25T11:12:37.222Z,1004.95
2022-07-25T11:13:37.230Z,1005.09
2022-07-25T11:14:37.234Z,1005.03
2022-07-25T11:15:37.244Z,1005.03
2022-07-25T11:16:37.326Z,1005.02
2022-07-25T11:17:37.242Z,1004.99
2022-07-25T11:18:37.251Z,1004.96
2022-07-25T11:19:37.250Z,1005.01
2022-07-25T11:20:37.256Z,1004.94
2022-07-25T11:21:37.262Z,1004.95
2022-07-25T11:22:37.267Z,1004.95
2022-07-25T11:23:37.269Z,1004.93
2022-07-25T11:24:37.278Z,1004.88
2022-07-25T11:25:37.280Z,1004.89
2022-07-25T11:26:37.285Z,1004.86
2022-07-25T11:27:37.288Z,1004.90
2022-07-25T11:28:37.293Z,1004.84
2022-07-25T11:29:37.297Z,1004.83
2022-07-25T11:30:37.305Z,1004.81
2022-07-25T11:31:37.339Z,1004.74
2022-07-25T11:32:37.314Z,1004.75
2022-07-25T11:33:38.871Z,1004.73
2022-07-25T11:34:37.344Z,1004.74
2022-07-25T11:35:37.328Z,1004.76
2022-07-25T11:36:37.331Z,1004.77
2022-07-25T11:37:37.337Z,1004.73
2022-07-25T11:38:37.341Z,1004.67
2022-07-25T11:39:37.347Z,1004.63
2022-07-25T11:40:37.348Z,1004.65
2022-07-25T11:41:37.358Z,1004.68
2022-07-25T11:42:37.361Z,1004.66
2022-07-25T11:43:37.367Z,1004.64
2022-07-25T11:44:37.376Z,1004.66
2022-07-25T11:45:37.465Z,1004.60
2022-07-25T11:46:37.445Z,1004.56
2022-07-25T11:47:37.384Z,1004.62
2022-07-25T11:48:37.448Z,1004.61
2022-07-25T11:49:37.393Z,1004.58
2022-07-25T11:50:37.402Z,1004.61
2022-07-25T11:51:37.403Z,1004.58
2022-07-25T11:52:37.406Z,1004.48
2022-07-25T11:53:37.410Z,1004.55
2022-07-25T11:54:37.420Z,1004.48
2022-07-25T11:55:37.425Z,1004.60
2022-07-25T11:56:42.853Z,1004.54
2022-07-25T11:57:37.436Z,1004.45
2022-07-25T11:58:37.444Z,1004.42
2022-07-25T11:59:37.444Z,1004.46
2022-07-25T12:00:37.453Z,1004.30
2022-07-25T12:01:37.453Z,1004.41
2022-07-25T12:02:37.589Z,1004.40
2022-07-25T12:03:37.544Z,1004.47
2022-07-25T12:04:37.466Z,1004.42
2022-07-25T12:05:37.473Z,1004.43
2022-07-25T12:06:37.480Z,1004.41
2022-07-25T12:07:37.483Z,1004.29
2022-07-25T12:08:37.487Z,1004.31
2022-07-25T12:09:37.495Z,1004.28
2022-07-25T12:10:37.500Z,1004.24
2022-07-25T12:11:37.504Z,1004.29
2022-07-25T12:12:37.510Z,1004.27
2022-07-25T12:13:37.513Z,1004.21
2022-07-25T12:14:37.521Z,1004.24
2022-07-25T12:15:37.525Z,1004.27
2022-07-25T12:16:37.607Z,1004.22
2022-07-25T12:17:37.539Z,1004.23
2022-07-25T12:18:37.540Z,1004.17
2022-07-25T12:19:37.549Z,1004.14
2022-07-25T12:20:37.554Z,1004.15
2022-07-25T12:21:37.558Z,1004.15
2022-07-25T12:22:37.564Z,1004.09
2022-07-25T12:23:37.569Z,1004.08
2022-07-25T12:24:37.580Z,1004.07
2022-07-25T12:25:37.582Z,1004.05
2022-07-25T12:26:37.587Z,1004.07
2022-07-25T12:27:37.590Z,1004.03
2022-07-25T12:28:37.600Z,1004.02
2022-07-25T12:29:37.604Z,1004.04
2022-07-25T12:30:37.674Z,1004.00
2022-07-25T12:31:37.613Z,1003.99
2022-07-25T12:32:37.618Z,1003.94
2022-07-25T12:33:37.632Z,1003.95